sensor_id;sensor_type;location;lat;lon;timestamp;pressure;altitude;pressure_sealevel;temperature;humidity
63090;BME280;49174;43.198;27.824;2023-03-25T01:34:25;101386.09;;;3.22;100.00
63090;BME280;49174;43.198;27.824;2023-03-25T04:59:22;101298.34;;;3.69;100.00
63090;BME280;49174;43.198;27.824;2023-03-25T05:01:48;101294.28;;;3.84;100.00
63090;BME280;49174;43.198;27.824;2023-03-25T05:04:14;101289.53;;;4.07;100.00
63090;BME280;49174;43.198;27.824;2023-03-25T05:06:45;101290.22;;;4.19;100.00
63090;BME280;49174;43.198;27.824;2023-03-25T05:09:15;101288.25;;;4.21;100.00
63090;BME280;49174;43.198;27.824;2023-03-25T05:11:41;101293.97;;;4.26;100.00
63090;BME280;49174;43.198;27.824;2023-03-25T05:14:10;101296.06;;;4.42;100.00
63090;BME280;49174;43.198;27.824;2023-03-25T05:16:36;101289.88;;;4.51;100.00
63090;BME280;49174;43.198;27.824;2023-03-25T05:19:01;101292.25;;;4.64;100.00
63090;BME280;49174;43.198;27.824;2023-03-25T05:21:28;101294.56;;;4.86;100.00
63090;BME280;49174;43.198;27.824;2023-03-25T05:23:53;101285.38;;;4.99;100.00
63090;BME280;49174;43.198;27.824;2023-03-25T05:26:19;101286.06;;;5.28;100.00
63090;BME280;49174;43.198;27.824;2023-03-25T05:28:45;101296.25;;;5.43;100.00
63090;BME280;49174;43.198;27.824;2023-03-25T05:31:13;101306.19;;;5.60;100.00
63090;BME280;49174;43.198;27.824;2023-03-25T05:33:41;101288.81;;;5.82;100.00
63090;BME280;49174;43.198;27.824;2023-03-25T05:36:13;101289.25;;;6.05;100.00
63090;BME280;49174;43.198;27.824;2023-03-25T05:38:40;101293.19;;;6.37;100.00
63090;BME280;49174;43.198;27.824;2023-03-25T05:41:14;101287.31;;;6.59;100.00
63090;BME280;49174;43.198;27.824;2023-03-25T05:43:43;101296.88;;;6.88;100.00
63090;BME280;49174;43.198;27.824;2023-03-25T05:46:17;101298.84;;;7.12;100.00
63090;BME280;49174;43.198;27.824;2023-03-25T05:51:39;101299.78;;;7.37;100.00
63090;BME280;49174;43.198;27.824;2023-03-25T05:54:21;101293.09;;;7.41;100.00
63090;BME280;49174;43.198;27.824;2023-03-25T05:56:55;101299.16;;;7.51;100.00
63090;BME280;49174;43.198;27.824;2023-03-25T05:59:46;101288.44;;;7.59;100.00
63090;BME280;49174;43.198;27.824;2023-03-25T06:02:13;101276.72;;;7.77;100.00
63090;BME280;49174;43.198;27.824;2023-03-25T06:04:39;101272.41;;;8.00;100.00
63090;BME280;49174;43.198;27.824;2023-03-25T06:07:08;101272.56;;;8.07;100.00
63090;BME280;49174;43.198;27.824;2023-03-25T06:09:39;101274.56;;;8.21;100.00
63090;BME280;49174;43.198;27.824;2023-03-25T06:12:13;101267.84;;;8.34;100.00
63090;BME280;49174;43.198;27.824;2023-03-25T06:14:40;101273.75;;;8.45;100.00
63090;BME280;49174;43.198;27.824;2023-03-25T06:17:10;101282.50;;;8.56;100.00
63090;BME280;49174;43.198;27.824;2023-03-25T06:19:36;101275.25;;;8.64;100.00
63090;BME280;49174;43.198;27.824;2023-03-25T06:22:07;101270.50;;;8.75;100.00
63090;BME280;49174;43.198;27.824;2023-03-25T06:24:35;101260.38;;;8.85;100.00
63090;BME280;49174;43.198;27.824;2023-03-25T06:27:01;101263.88;;;8.93;100.00
63090;BME280;49174;43.198;27.824;2023-03-25T06:29:27;101257.78;;;9.08;100.00
63090;BME280;49174;43.198;27.824;2023-03-25T06:31:52;101257.91;;;9.23;100.00
63090;BME280;49174;43.198;27.824;2023-03-25T06:34:18;101257.50;;;9.34;100.00
63090;BME280;49174;43.198;27.824;2023-03-25T06:36:43;101260.47;;;9.47;100.00
63090;BME280;49174;43.198;27.824;2023-03-25T06:39:09;101259.41;;;9.56;100.00
63090;BME280;49174;43.198;27.824;2023-03-25T06:41:35;101253.41;;;9.69;100.00
63090;BME280;49174;43.198;27.824;2023-03-25T06:44:02;101258.09;;;9.75;100.00
63090;BME280;49174;43.198;27.824;2023-03-25T06:46:27;101254.50;;;9.83;100.00
63090;BME280;49174;43.198;27.824;2023-03-25T06:48:52;101265.47;;;10.04;100.00
63090;BME280;49174;43.198;27.824;2023-03-25T06:51:18;101267.31;;;10.04;100.00
63090;BME280;49174;43.198;27.824;2023-03-25T06:53:46;101266.69;;;10.17;100.00
63090;BME280;49174;43.198;27.824;2023-03-25T06:56:11;101268.50;;;10.24;100.00
63090;BME280;49174;43.198;27.824;2023-03-25T06:58:37;101268.75;;;10.38;100.00
63090;BME280;49174;43.198;27.824;2023-03-25T07:01:03;101275.56;;;10.48;100.00
63090;BME280;49174;43.198;27.824;2023-03-25T07:03:31;101276.50;;;10.56;100.00
63090;BME280;49174;43.198;27.824;2023-03-25T07:05:56;101277.91;;;10.66;100.00
63090;BME280;49174;43.198;27.824;2023-03-25T07:08:22;101275.97;;;10.75;100.00
63090;BME280;49174;43.198;27.824;2023-03-25T07:10:48;101279.78;;;10.81;100.00
63090;BME280;49174;43.198;27.824;2023-03-25T07:13:13;101265.28;;;10.82;100.00
63090;BME280;49174;43.198;27.824;2023-03-25T07:15:39;101266.13;;;10.82;100.00
63090;BME280;49174;43.198;27.824;2023-03-25T07:18:04;101262.88;;;10.87;100.00
63090;BME280;49174;43.198;27.824;2023-03-25T07:20:29;101262.94;;;10.93;100.00
63090;BME280;49174;43.198;27.824;2023-03-25T07:22:55;101262.19;;;11.00;100.00
63090;BME280;49174;43.198;27.824;2023-03-25T07:25:20;101254.44;;;11.11;100.00
63090;BME280;49174;43.198;27.824;2023-03-25T07:27:46;101263.94;;;11.22;100.00
63090;BME280;49174;43.198;27.824;2023-03-25T07:30:12;101253.88;;;11.31;100.00
63090;BME280;49174;43.198;27.824;2023-03-25T07:32:37;101250.66;;;11.42;100.00
63090;BME280;49174;43.198;27.824;2023-03-25T07:35:21;101248.72;;;11.51;100.00
63090;BME280;49174;43.198;27.824;2023-03-25T07:37:46;101247.94;;;11.57;100.00
63090;BME280;49174;43.198;27.824;2023-03-25T07:40:15;101253.03;;;11.67;100.00
63090;BME280;49174;43.198;27.824;2023-03-25T07:42:40;101246.50;;;11.76;98.45
63090;BME280;49174;43.198;27.824;2023-03-25T07:45:06;101250.22;;;11.75;96.97
63090;BME280;49174;43.198;27.824;2023-03-25T07:53:06;101258.06;;;11.70;96.64
63090;BME280;49174;43.198;27.824;2023-03-25T08:07:12;101249.13;;;11.69;94.90
63090;BME280;49174;43.198;27.824;2023-03-25T08:09:38;101255.56;;;11.68;95.87
63090;BME280;49174;43.198;27.824;2023-03-25T08:14:56;101244.94;;;11.67;96.51
63090;BME280;49174;43.198;27.824;2023-03-25T08:17:24;101236.50;;;11.76;97.84
63090;BME280;49174;43.198;27.824;2023-03-25T08:19:50;101242.19;;;11.81;96.20
63090;BME280;49174;43.198;27.824;2023-03-25T08:22:16;101238.44;;;11.82;96.44
63090;BME280;49174;43.198;27.824;2023-03-25T08:24:44;101234.34;;;11.87;95.59
63090;BME280;49174;43.198;27.824;2023-03-25T08:27:09;101231.09;;;11.76;93.71
63090;BME280;49174;43.198;27.824;2023-03-25T08:29:34;101226.84;;;11.67;95.46
63090;BME280;49174;43.198;27.824;2023-03-25T08:32:00;101234.31;;;11.65;95.58
63090;BME280;49174;43.198;27.824;2023-03-25T08:34:26;101232.63;;;11.64;96.18
63090;BME280;49174;43.198;27.824;2023-03-25T08:36:51;101228.00;;;11.58;94.59
63090;BME280;49174;43.198;27.824;2023-03-25T08:39:22;101226.63;;;11.47;96.56
63090;BME280;49174;43.198;27.824;2023-03-25T08:42:27;101213.22;;;11.54;96.72
63090;BME280;49174;43.198;27.824;2023-03-25T08:44:53;101229.88;;;11.57;96.85
63090;BME280;49174;43.198;27.824;2023-03-25T08:47:18;101220.97;;;11.63;96.19
63090;BME280;49174;43.198;27.824;2023-03-25T08:49:44;101223.13;;;11.68;97.03
63090;BME280;49174;43.198;27.824;2023-03-25T08:52:09;101221.91;;;11.71;97.45
63090;BME280;49174;43.198;27.824;2023-03-25T08:54:35;101220.94;;;11.78;96.56
63090;BME280;49174;43.198;27.824;2023-03-25T08:57:00;101222.03;;;11.84;95.28
63090;BME280;49174;43.198;27.824;2023-03-25T08:59:26;101221.72;;;11.94;95.75
63090;BME280;49174;43.198;27.824;2023-03-25T09:01:52;101222.16;;;11.97;94.25
63090;BME280;49174;43.198;27.824;2023-03-25T09:04:18;101214.13;;;12.04;94.77
63090;BME280;49174;43.198;27.824;2023-03-25T09:06:43;101215.00;;;12.11;95.09
63090;BME280;49174;43.198;27.824;2023-03-25T09:09:09;101217.56;;;12.19;94.76
63090;BME280;49174;43.198;27.824;2023-03-25T09:11:37;101209.53;;;12.26;94.18
63090;BME280;49174;43.198;27.824;2023-03-25T09:14:02;101209.59;;;12.39;93.88
63090;BME280;49174;43.198;27.824;2023-03-25T09:16:30;101205.47;;;12.43;93.34
63090;BME280;49174;43.198;27.824;2023-03-25T09:18:57;101213.19;;;12.46;92.49
63090;BME280;49174;43.198;27.824;2023-03-25T09:21:23;101201.34;;;12.47;93.58
63090;BME280;49174;43.198;27.824;2023-03-25T09:23:50;101211.81;;;12.57;93.68
63090;BME280;49174;43.198;27.824;2023-03-25T09:26:18;101206.03;;;12.67;92.84
63090;BME280;49174;43.198;27.824;2023-03-25T09:28:43;101202.75;;;12.78;91.19
63090;BME280;49174;43.198;27.824;2023-03-25T09:31:09;101205.94;;;12.88;93.04
63090;BME280;49174;43.198;27.824;2023-03-25T09:33:35;101202.19;;;12.89;90.67
63090;BME280;49174;43.198;27.824;2023-03-25T09:36:01;101195.78;;;12.97;91.34
63090;BME280;49174;43.198;27.824;2023-03-25T09:38:26;101193.72;;;13.06;91.13
63090;BME280;49174;43.198;27.824;2023-03-25T09:40:52;101202.31;;;13.16;91.24
63090;BME280;49174;43.198;27.824;2023-03-25T09:45:46;101193.38;;;13.22;90.09
63090;BME280;49174;43.198;27.824;2023-03-25T09:50:38;101196.00;;;13.50;89.02
63090;BME280;49174;43.198;27.824;2023-03-25T09:53:06;101191.84;;;13.61;87.94
63090;BME280;49174;43.198;27.824;2023-03-25T09:55:39;101190.78;;;13.62;87.11
63090;BME280;49174;43.198;27.824;2023-03-25T10:00:47;101165.38;;;13.70;86.05
63090;BME280;49174;43.198;27.824;2023-03-25T10:13:26;101168.94;;;14.10;85.81
63090;BME280;49174;43.198;27.824;2023-03-25T10:16:05;101162.88;;;14.21;84.44
63090;BME280;49174;43.198;27.824;2023-03-25T10:26:19;101140.28;;;14.41;81.15
63090;BME280;49174;43.198;27.824;2023-03-25T10:28:49;101138.38;;;14.48;80.89
63090;BME280;49174;43.198;27.824;2023-03-25T10:31:17;101124.59;;;14.56;82.57
63090;BME280;49174;43.198;27.824;2023-03-25T10:33:55;101126.69;;;14.61;82.03
63090;BME280;49174;43.198;27.824;2023-03-25T10:36:27;101129.59;;;14.66;79.67
63090;BME280;49174;43.198;27.824;2023-03-25T10:38:55;101126.63;;;14.74;79.70
63090;BME280;49174;43.198;27.824;2023-03-25T10:41:29;101124.94;;;14.80;80.74
63090;BME280;49174;43.198;27.824;2023-03-25T10:43:55;101115.53;;;14.75;79.05
63090;BME280;49174;43.198;27.824;2023-03-25T10:48:50;101105.84;;;14.93;78.75
63090;BME280;49174;43.198;27.824;2023-03-25T10:51:17;101103.31;;;14.98;78.28
63090;BME280;49174;43.198;27.824;2023-03-25T10:56:33;101106.03;;;14.98;77.57
63090;BME280;49174;43.198;27.824;2023-03-25T10:59:02;101105.69;;;14.88;77.15
63090;BME280;49174;43.198;27.824;2023-03-25T11:01:35;101094.97;;;14.93;78.86
63090;BME280;49174;43.198;27.824;2023-03-25T11:04:02;101089.59;;;14.86;76.66
63090;BME280;49174;43.198;27.824;2023-03-25T11:06:32;101092.56;;;14.78;78.56
63090;BME280;49174;43.198;27.824;2023-03-25T11:11:32;101081.19;;;14.94;77.55
63090;BME280;49174;43.198;27.824;2023-03-25T11:13:58;101081.63;;;14.85;78.93
63090;BME280;49174;43.198;27.824;2023-03-25T11:16:23;101077.28;;;14.84;75.86
63090;BME280;49174;43.198;27.824;2023-03-25T11:18:50;101081.91;;;14.77;78.86
63090;BME280;49174;43.198;27.824;2023-03-25T11:21:17;101068.09;;;14.78;76.56
63090;BME280;49174;43.198;27.824;2023-03-25T11:26:21;101062.81;;;14.90;76.69
63090;BME280;49174;43.198;27.824;2023-03-25T11:29:10;101059.75;;;14.80;75.39
63090;BME280;49174;43.198;27.824;2023-03-25T11:31:34;101058.53;;;14.69;78.04
63090;BME280;49174;43.198;27.824;2023-03-25T11:36:39;101047.97;;;14.92;77.95
63090;BME280;49174;43.198;27.824;2023-03-25T11:39:13;101049.97;;;15.04;76.74
63090;BME280;49174;43.198;27.824;2023-03-25T11:41:40;101042.50;;;14.99;77.22
63090;BME280;49174;43.198;27.824;2023-03-25T11:44:06;101043.78;;;14.96;75.33
63090;BME280;49174;43.198;27.824;2023-03-25T11:46:31;101037.53;;;14.89;76.41
63090;BME280;49174;43.198;27.824;2023-03-25T11:49:06;101035.81;;;14.95;77.00
63090;BME280;49174;43.198;27.824;2023-03-25T11:51:32;101025.34;;;14.98;75.33
63090;BME280;49174;43.198;27.824;2023-03-25T11:54:00;101030.31;;;15.08;74.55
63090;BME280;49174;43.198;27.824;2023-03-25T11:56:33;101027.72;;;14.88;75.63
63090;BME280;49174;43.198;27.824;2023-03-25T11:59:00;101023.38;;;14.81;74.77
63090;BME280;49174;43.198;27.824;2023-03-25T12:01:43;101029.75;;;14.61;75.33
63090;BME280;49174;43.198;27.824;2023-03-25T12:04:17;101015.34;;;14.61;76.13
63090;BME280;49174;43.198;27.824;2023-03-25T12:06:51;101007.59;;;14.64;76.81
63090;BME280;49174;43.198;27.824;2023-03-25T12:09:17;101012.25;;;14.57;76.58
63090;BME280;49174;43.198;27.824;2023-03-25T12:12:01;101020.41;;;14.44;76.93
63090;BME280;49174;43.198;27.824;2023-03-25T12:14:47;101019.97;;;14.47;76.50
63090;BME280;49174;43.198;27.824;2023-03-25T12:20:00;101030.44;;;14.37;77.46
63090;BME280;49174;43.198;27.824;2023-03-25T12:25:11;101016.44;;;14.46;75.95
63090;BME280;49174;43.198;27.824;2023-03-25T12:33:14;101008.59;;;14.70;75.64
63090;BME280;49174;43.198;27.824;2023-03-25T12:49:02;100991.41;;;14.31;74.97
63090;BME280;49174;43.198;27.824;2023-03-25T13:06:59;100975.06;;;13.93;77.91
63090;BME280;49174;43.198;27.824;2023-03-25T13:09:31;100971.75;;;13.91;78.58
63090;BME280;49174;43.198;27.824;2023-03-25T13:12:01;100979.03;;;13.97;77.66
63090;BME280;49174;43.198;27.824;2023-03-25T13:14:29;100975.25;;;13.98;77.20
63090;BME280;49174;43.198;27.824;2023-03-25T13:16:58;100970.91;;;13.97;78.68
63090;BME280;49174;43.198;27.824;2023-03-25T13:19:26;100972.19;;;13.81;78.78
63090;BME280;49174;43.198;27.824;2023-03-25T13:21:54;100980.34;;;13.74;79.07
63090;BME280;49174;43.198;27.824;2023-03-25T13:26:56;100967.84;;;13.53;78.70
63090;BME280;49174;43.198;27.824;2023-03-25T13:29:27;100972.06;;;13.49;78.95
63090;BME280;49174;43.198;27.824;2023-03-25T13:31:55;100961.19;;;13.43;79.46
63090;BME280;49174;43.198;27.824;2023-03-25T13:34:35;100957.44;;;13.37;79.01
63090;BME280;49174;43.198;27.824;2023-03-25T13:37:10;100960.19;;;13.30;80.41
63090;BME280;49174;43.198;27.824;2023-03-25T13:39:49;100958.25;;;13.17;81.09
63090;BME280;49174;43.198;27.824;2023-03-25T13:42:23;100958.28;;;12.91;81.19
63090;BME280;49174;43.198;27.824;2023-03-25T13:44:50;100958.84;;;12.73;81.94
63090;BME280;49174;43.198;27.824;2023-03-25T13:49:53;100946.91;;;12.34;85.41
63090;BME280;49174;43.198;27.824;2023-03-25T13:52:20;100945.66;;;12.30;86.05
63090;BME280;49174;43.198;27.824;2023-03-25T13:54:51;100941.81;;;12.11;86.56
63090;BME280;49174;43.198;27.824;2023-03-25T14:11:33;100945.22;;;10.72;96.86
63090;BME280;49174;43.198;27.824;2023-03-25T14:14:04;100927.75;;;10.90;97.72
63090;BME280;49174;43.198;27.824;2023-03-25T14:16:32;100935.00;;;10.89;95.65
63090;BME280;49174;43.198;27.824;2023-03-25T14:19:03;100928.00;;;10.95;96.87
63090;BME280;49174;43.198;27.824;2023-03-25T14:21:33;100923.28;;;11.04;95.19
63090;BME280;49174;43.198;27.824;2023-03-25T14:24:03;100923.13;;;10.84;97.48
63090;BME280;49174;43.198;27.824;2023-03-25T14:26:30;100921.31;;;10.91;96.86
63090;BME280;49174;43.198;27.824;2023-03-25T14:28:57;100918.16;;;10.87;97.50
63090;BME280;49174;43.198;27.824;2023-03-25T14:31:29;100913.44;;;10.68;97.68
63090;BME280;49174;43.198;27.824;2023-03-25T14:36:27;100920.59;;;10.82;95.18
63090;BME280;49174;43.198;27.824;2023-03-25T14:38:54;100906.28;;;10.39;98.11
63090;BME280;49174;43.198;27.824;2023-03-25T14:44:25;100908.34;;;10.58;99.05
63090;BME280;49174;43.198;27.824;2023-03-25T14:47:24;100909.25;;;10.65;97.74
63090;BME280;49174;43.198;27.824;2023-03-25T14:55:07;100913.88;;;10.71;97.53
63090;BME280;49174;43.198;27.824;2023-03-25T14:57:37;100911.38;;;10.70;97.16
63090;BME280;49174;43.198;27.824;2023-03-25T15:00:04;100907.25;;;10.74;97.11
63090;BME280;49174;43.198;27.824;2023-03-25T15:02:39;100911.69;;;10.60;95.78
63090;BME280;49174;43.198;27.824;2023-03-25T15:08:19;100912.00;;;10.72;96.46
63090;BME280;49174;43.198;27.824;2023-03-25T15:12:59;100912.47;;;10.54;96.97
63090;BME280;49174;43.198;27.824;2023-03-25T15:17:57;100914.75;;;10.36;96.51
63090;BME280;49174;43.198;27.824;2023-03-25T15:25:32;100925.03;;;10.47;96.83
63090;BME280;49174;43.198;27.824;2023-03-25T15:38:14;100925.75;;;10.34;97.25
63090;BME280;49174;43.198;27.824;2023-03-25T15:56:31;100906.63;;;10.14;99.23
63090;BME280;49174;43.198;27.824;2023-03-25T15:59:04;100916.84;;;10.04;98.86
63090;BME280;49174;43.198;27.824;2023-03-25T16:01:32;100919.03;;;9.79;100.00
63090;BME280;49174;43.198;27.824;2023-03-25T16:06:23;100910.28;;;9.77;100.00
63090;BME280;49174;43.198;27.824;2023-03-25T16:08:50;100911.13;;;9.77;100.00
63090;BME280;49174;43.198;27.824;2023-03-25T16:11:25;100905.47;;;9.87;100.00
63090;BME280;49174;43.198;27.824;2023-03-25T16:14:01;100900.19;;;9.64;100.00
63090;BME280;49174;43.198;27.824;2023-03-25T16:19:12;100908.81;;;9.15;100.00
63090;BME280;49174;43.198;27.824;2023-03-25T16:27:17;100905.03;;;9.54;100.00
63090;BME280;49174;43.198;27.824;2023-03-25T16:29:47;100904.72;;;9.63;100.00
63090;BME280;49174;43.198;27.824;2023-03-25T17:14:30;100923.13;;;9.45;100.00
63090;BME280;49174;43.198;27.824;2023-03-25T22:02:48;100798.63;;;8.99;100.00
63090;BME280;49174;43.198;27.824;2023-03-25T22:08:03;100787.47;;;9.02;100.00
63090;BME280;49174;43.198;27.824;2023-03-25T22:29:45;100789.13;;;8.88;100.00
63090;BME280;49174;43.198;27.824;2023-03-25T22:32:10;100789.72;;;8.83;100.00
63090;BME280;49174;43.198;27.824;2023-03-25T22:34:36;100774.94;;;8.94;100.00
63090;BME280;49174;43.198;27.824;2023-03-25T22:37:02;100789.88;;;8.97;100.00
63090;BME280;49174;43.198;27.824;2023-03-25T22:39:28;100766.63;;;8.89;100.00
63090;BME280;49174;43.198;27.824;2023-03-25T22:41:54;100784.13;;;9.00;100.00
63090;BME280;49174;43.198;27.824;2023-03-25T22:44:20;100770.13;;;8.89;100.00
63090;BME280;49174;43.198;27.824;2023-03-25T22:46:46;100762.44;;;8.86;100.00
63090;BME280;49174;43.198;27.824;2023-03-25T22:49:12;100768.09;;;8.91;100.00
63090;BME280;49174;43.198;27.824;2023-03-25T22:51:37;100776.88;;;8.85;100.00
63090;BME280;49174;43.198;27.824;2023-03-25T22:54:03;100778.50;;;8.94;100.00
63090;BME280;49174;43.198;27.824;2023-03-25T22:56:29;100767.81;;;8.86;100.00
63090;BME280;49174;43.198;27.824;2023-03-25T22:59:01;100771.63;;;8.92;100.00
63090;BME280;49174;43.198;27.824;2023-03-25T23:01:27;100771.25;;;8.95;100.00
63090;BME280;49174;43.198;27.824;2023-03-25T23:03:53;100771.50;;;8.85;100.00
63090;BME280;49174;43.198;27.824;2023-03-25T23:06:19;100750.72;;;8.79;100.00
63090;BME280;49174;43.198;27.824;2023-03-25T23:08:45;100767.25;;;8.91;100.00
63090;BME280;49174;43.198;27.824;2023-03-25T23:11:15;100750.34;;;8.82;100.00
63090;BME280;49174;43.198;27.824;2023-03-25T23:13:41;100763.63;;;8.99;100.00
63090;BME280;49174;43.198;27.824;2023-03-25T23:16:08;100796.00;;;8.90;100.00
63090;BME280;49174;43.198;27.824;2023-03-25T23:18:34;100782.94;;;8.72;100.00
63090;BME280;49174;43.198;27.824;2023-03-25T23:21:01;100782.34;;;8.62;100.00
63090;BME280;49174;43.198;27.824;2023-03-25T23:23:27;100773.88;;;8.50;100.00
63090;BME280;49174;43.198;27.824;2023-03-25T23:26:00;100770.00;;;8.53;100.00
63090;BME280;49174;43.198;27.824;2023-03-25T23:28:26;100784.28;;;8.68;100.00
63090;BME280;49174;43.198;27.824;2023-03-25T23:42:07;100775.69;;;8.58;100.00
63090;BME280;49174;43.198;27.824;2023-03-25T23:44:33;100758.13;;;8.47;100.00
63090;BME280;49174;43.198;27.824;2023-03-25T23:46:59;100739.22;;;8.56;100.00
63090;BME280;49174;43.198;27.824;2023-03-25T23:54:49;100721.41;;;8.17;100.00
63090;BME280;49174;43.198;27.824;2023-03-25T23:57:14;100714.09;;;8.25;100.00
63090;BME280;49174;43.198;27.824;2023-03-25T23:59:40;100728.91;;;8.44;100.00
